Time;durP1;ratioP1;P1;durP2;ratioP2;P2;SDS_P1;SDS_P2;PMS_P1;PMS_P2;Temp;Humidity;BMP_temperature;BMP_pressure;BME280_temperature;BME280_humidity;BME280_pressure;Samples;Min_cycle;Max_cycle;Signal;HPM_P1;HPM_P2
2023/09/11 00:01:01;;;;;;;7.90;6.00;;;24.50;75.80;;;;;;5114227;28;20487;-64
2023/09/11 00:03:26;;;;;;;8.13;6.00;;;24.50;75.80;;;;;;5114594;28;20041;-64
2023/09/11 00:05:53;;;;;;;7.03;5.55;;;24.50;75.70;;;;;;5113763;28;20411;-64
2023/09/11 00:08:19;;;;;;;7.40;6.53;;;24.50;75.70;;;;;;5097012;28;20051;-64
2023/09/11 00:10:44;;;;;;;7.55;6.07;;;24.40;75.70;;;;;;5112660;28;20062;-64
2023/09/11 00:13:10;;;;;;;8.07;6.07;;;24.40;75.70;;;;;;5115218;28;20042;-64
2023/09/11 00:15:36;;;;;;;8.00;6.32;;;24.40;75.70;;;;;;5096055;28;20044;-64
2023/09/11 00:18:01;;;;;;;8.80;6.30;;;24.40;75.60;;;;;;5093861;28;20063;-64
2023/09/11 00:20:27;;;;;;;7.68;6.30;;;24.40;75.70;;;;;;5094817;28;20090;-64
2023/09/11 00:22:52;;;;;;;7.13;5.95;;;24.40;75.70;;;;;;5092179;28;20043;-64
2023/09/11 00:25:18;;;;;;;8.38;6.10;;;24.40;75.60;;;;;;5092284;28;20102;-64
2023/09/11 00:27:44;;;;;;;7.18;5.93;;;24.40;75.50;;;;;;5093487;28;20492;-64
2023/09/11 00:30:10;;;;;;;8.85;6.68;;;24.40;75.60;;;;;;5091968;28;20048;-64
2023/09/11 00:32:36;;;;;;;8.60;6.18;;;24.40;75.60;;;;;;5093630;28;20040;-64
2023/09/11 00:35:01;;;;;;;8.93;6.30;;;24.40;75.50;;;;;;5094066;28;20039;-64
2023/09/11 00:37:27;;;;;;;9.43;6.15;;;24.40;75.60;;;;;;5092912;28;20155;-64
2023/09/11 00:39:53;;;;;;;8.18;6.30;;;24.40;75.50;;;;;;5092941;28;20564;-64
2023/09/11 00:42:18;;;;;;;8.98;5.90;;;24.40;75.50;;;;;;5102981;28;20082;-64
2023/09/11 00:44:44;;;;;;;7.20;5.70;;;24.40;75.50;;;;;;5113345;28;20043;-64
2023/09/11 00:47:09;;;;;;;7.97;5.70;;;24.40;75.50;;;;;;5113906;28;20563;-64
2023/09/11 00:49:35;;;;;;;8.85;5.95;;;24.30;75.40;;;;;;5102933;28;20036;-64
2023/09/11 00:52:01;;;;;;;6.82;5.85;;;24.40;75.50;;;;;;5092971;28;20043;-64
2023/09/11 00:54:27;;;;;;;7.50;5.95;;;24.40;75.40;;;;;;5092658;28;20032;-64
2023/09/11 00:56:52;;;;;;;7.47;5.90;;;24.40;75.50;;;;;;5092343;28;20128;-64
2023/09/11 00:59:18;;;;;;;8.57;5.60;;;24.40;75.40;;;;;;5093339;28;20036;-64
2023/09/11 01:01:44;;;;;;;8.23;5.93;;;24.30;75.40;;;;;;5075401;28;20403;-64
2023/09/11 01:04:10;;;;;;;7.45;6.00;;;24.30;75.40;;;;;;5093920;28;20040;-65
2023/09/11 01:06:35;;;;;;;7.50;5.85;;;24.30;75.40;;;;;;5092436;28;20055;-64
2023/09/11 01:09:02;;;;;;;6.45;5.53;;;24.30;75.40;;;;;;5075907;28;20040;-65
2023/09/11 01:11:27;;;;;;;8.02;6.22;;;24.30;75.30;;;;;;5092656;28;20051;-64
2023/09/11 01:13:53;;;;;;;8.43;5.85;;;24.30;75.30;;;;;;5092689;28;20846;-64
2023/09/11 01:16:43;;;;;;;8.70;5.95;;;24.30;75.30;;;;;;5093005;28;20043;-64
2023/09/11 01:19:36;;;;;;;7.35;6.20;;;24.30;75.20;;;;;;5092315;28;20496;-64
2023/09/11 01:22:33;;;;;;;7.40;5.68;;;24.30;75.20;;;;;;5092882;28;20044;-64
2023/09/11 01:25:11;;;;;;;;;;;24.30;75.20;;;;;;5081505;28;20134;-64
2023/09/11 01:27:50;;;;;;;;;;;24.20;75.20;;;;;;5092473;28;20353;-64
2023/09/11 01:30:16;;;;;;;8.07;5.93;;;24.30;75.20;;;;;;5092062;28;19967;-64
2023/09/11 01:32:42;;;;;;;6.55;5.45;;;24.20;75.30;;;;;;5091685;28;20441;-64
2023/09/11 01:35:07;;;;;;;7.13;5.65;;;24.20;75.20;;;;;;5090525;28;20043;-64
2023/09/11 01:37:33;;;;;;;8.57;6.50;;;24.30;75.30;;;;;;5092102;28;20063;-64
2023/09/11 01:39:59;;;;;;;7.32;5.95;;;24.20;75.20;;;;;;5091985;28;20502;-64
2023/09/11 01:42:29;;;;;;;7.30;6.18;;;24.30;75.30;;;;;;5078397;28;20045;-64
2023/09/11 01:44:55;;;;;;;7.20;5.97;;;24.30;75.30;;;;;;5071668;28;20472;-65
2023/09/11 01:47:21;;;;;;;6.93;6.20;;;24.20;75.20;;;;;;5071730;28;20098;-64
2023/09/11 01:49:47;;;;;;;7.05;5.88;;;24.20;75.30;;;;;;5071370;28;20051;-64
2023/09/11 01:52:12;;;;;;;10.00;6.35;;;24.20;75.20;;;;;;5071885;28;20115;-64
2023/09/11 01:54:38;;;;;;;8.73;5.85;;;24.20;75.20;;;;;;5070711;28;20040;-64
2023/09/11 01:57:07;;;;;;;8.13;6.13;;;24.20;75.20;;;;;;5068534;28;20039;-64
2023/09/11 01:59:32;;;;;;;7.78;6.05;;;24.30;75.20;;;;;;5112253;28;20140;-65
2023/09/11 02:01:58;;;;;;;6.72;5.82;;;24.20;75.20;;;;;;5095344;28;20060;-64
2023/09/11 02:04:24;;;;;;;7.00;5.65;;;24.20;75.20;;;;;;5092051;28;20036;-63
2023/09/11 02:06:49;;;;;;;8.55;6.53;;;24.20;75.20;;;;;;5092015;28;20069;-64
2023/09/11 02:09:15;;;;;;;8.02;6.57;;;24.20;75.20;;;;;;5091059;28;20048;-64
2023/09/11 02:11:40;;;;;;;7.15;5.88;;;24.20;75.10;;;;;;5092644;28;20051;-64
2023/09/11 02:14:06;;;;;;;7.43;6.22;;;24.20;75.10;;;;;;5092984;28;20036;-64
2023/09/11 02:16:32;;;;;;;9.20;5.93;;;24.20;75.10;;;;;;5092115;28;20044;-64
2023/09/11 02:18:57;;;;;;;6.45;5.75;;;24.20;75.10;;;;;;5091387;28;20134;-64
2023/09/11 02:21:23;;;;;;;7.47;6.18;;;24.20;75.10;;;;;;5092971;28;20046;-64
2023/09/11 02:23:48;;;;;;;7.80;6.13;;;24.20;75.10;;;;;;5090490;28;20044;-64
2023/09/11 02:26:14;;;;;;;8.65;6.25;;;24.20;75.70;;;;;;5091411;28;20141;-64
2023/09/11 02:28:40;;;;;;;8.93;6.00;;;24.20;75.10;;;;;;5090314;28;20037;-64
2023/09/11 02:31:06;;;;;;;8.05;6.00;;;24.20;75.10;;;;;;5092079;28;20051;-64
2023/09/11 02:33:32;;;;;;;6.97;5.65;;;24.20;75.10;;;;;;5092423;28;20044;-64
2023/09/11 02:35:57;;;;;;;8.10;6.25;;;24.20;75.10;;;;;;5092446;28;20105;-64
2023/09/11 02:38:23;;;;;;;7.22;6.00;;;24.20;75.10;;;;;;5092038;28;20052;-64
2023/09/11 02:40:49;;;;;;;7.05;5.85;;;24.20;75.10;;;;;;5106856;28;20048;-64
2023/09/11 02:43:15;;;;;;;6.43;5.50;;;24.20;75.10;;;;;;5117350;28;20030;-63
2023/09/11 02:45:44;;;;;;;8.48;5.55;;;24.20;75.20;;;;;;5116203;28;20531;-64
2023/09/11 02:48:09;;;;;;;7.43;6.10;;;24.20;75.10;;;;;;5115696;28;20047;-64
2023/09/11 02:50:35;;;;;;;9.95;5.82;;;24.20;75.10;;;;;;5114675;28;20048;-64
2023/09/11 02:53:01;;;;;;;6.53;5.57;;;24.20;75.10;;;;;;5116041;28;20044;-64
2023/09/11 02:55:26;;;;;;;6.85;5.70;;;24.20;75.00;;;;;;5115721;28;20510;-64
2023/09/11 02:57:52;;;;;;;8.00;5.95;;;24.20;75.00;;;;;;5115842;28;20124;-64
2023/09/11 03:00:17;;;;;;;7.95;5.90;;;24.20;75.10;;;;;;5116705;28;20042;-64
2023/09/11 03:02:44;;;;;;;7.07;6.28;;;24.20;75.00;;;;;;5132144;27;20040;-63
2023/09/11 03:05:10;;;;;;;8.45;6.00;;;24.20;75.10;;;;;;5116208;28;20043;-64
2023/09/11 03:07:36;;;;;;;6.95;6.20;;;24.20;75.00;;;;;;5116248;28;20048;-64
2023/09/11 03:10:03;;;;;;;7.28;5.82;;;24.20;75.00;;;;;;5116808;28;20122;-64
2023/09/11 03:12:29;;;;;;;9.23;5.68;;;24.10;75.00;;;;;;5114443;28;20402;-64
2023/09/11 03:14:58;;;;;;;7.82;5.75;;;24.20;75.00;;;;;;5114921;28;20073;-64
2023/09/11 03:17:24;;;;;;;6.68;5.97;;;24.10;75.00;;;;;;5116452;28;20075;-64
2023/09/11 03:19:50;;;;;;;7.63;5.65;;;24.10;75.00;;;;;;5115287;28;20083;-64
2023/09/11 03:22:15;;;;;;;7.50;5.95;;;24.20;75.00;;;;;;5115193;28;20039;-63
2023/09/11 03:24:41;;;;;;;6.85;6.03;;;24.10;74.90;;;;;;5115917;28;20410;-64
2023/09/11 03:27:06;;;;;;;6.50;5.80;;;24.20;75.00;;;;;;5115702;28;20067;-64
2023/09/11 03:29:32;;;;;;;8.73;5.93;;;24.10;75.20;;;;;;5116210;28;20089;-64
2023/09/11 03:31:57;;;;;;;6.63;5.68;;;24.10;75.00;;;;;;5116144;28;20079;-64
2023/09/11 03:34:23;;;;;;;7.25;5.68;;;24.10;74.90;;;;;;5115483;28;20070;-65
2023/09/11 03:36:49;;;;;;;8.35;6.25;;;24.10;74.90;;;;;;5115761;28;20384;-64
2023/09/11 03:39:14;;;;;;;7.15;6.22;;;24.10;74.90;;;;;;5116200;28;20126;-64
2023/09/11 03:41:40;;;;;;;7.45;5.90;;;24.10;74.90;;;;;;5115081;28;20047;-64
2023/09/11 03:44:05;;;;;;;7.43;5.78;;;24.10;74.90;;;;;;5112429;28;20414;-65
2023/09/11 03:46:31;;;;;;;6.80;6.10;;;24.10;74.90;;;;;;5095477;28;20050;-64
2023/09/11 03:48:57;;;;;;;6.80;5.63;;;24.10;74.90;;;;;;5094234;28;20085;-64
2023/09/11 03:51:22;;;;;;;7.60;6.05;;;24.10;74.90;;;;;;5093991;28;20051;-64
2023/09/11 03:53:49;;;;;;;10.10;6.40;;;24.10;74.90;;;;;;5095199;28;20398;-64
2023/09/11 03:56:14;;;;;;;7.22;6.03;;;24.10;74.90;;;;;;5093370;28;20040;-64
2023/09/11 03:58:42;;;;;;;9.27;5.85;;;24.10;74.90;;;;;;5093696;28;20403;-64
2023/09/11 04:01:07;;;;;;;7.80;5.90;;;24.10;74.90;;;;;;5087444;28;20032;-64
2023/09/11 04:03:33;;;;;;;6.53;5.55;;;24.10;74.90;;;;;;5095036;28;20070;-64
2023/09/11 04:05:58;;;;;;;6.82;5.57;;;24.10;74.90;;;;;;5094300;28;20040;-64
2023/09/11 04:08:24;;;;;;;6.85;5.57;;;24.10;74.90;;;;;;5093913;28;20044;-64
2023/09/11 04:10:49;;;;;;;6.93;5.72;;;24.00;74.80;;;;;;5094724;28;20404;-64
2023/09/11 04:13:15;;;;;;;7.20;6.05;;;24.00;74.80;;;;;;5093631;28;20086;-64
2023/09/11 04:15:40;;;;;;;6.45;5.72;;;24.00;74.80;;;;;;5093692;28;20071;-64
2023/09/11 04:18:06;;;;;;;7.72;5.80;;;24.10;75.50;;;;;;5095077;28;20069;-64
2023/09/11 04:20:35;;;;;;;6.72;5.50;;;24.00;74.80;;;;;;5095019;28;20044;-64
2023/09/11 04:23:01;;;;;;;7.15;5.72;;;24.00;74.80;;;;;;5094212;28;20051;-64
2023/09/11 04:25:27;;;;;;;7.32;5.95;;;24.00;74.80;;;;;;5093770;28;20403;-64
2023/09/11 04:27:53;;;;;;;8.55;5.93;;;24.00;74.80;;;;;;5092702;28;20044;-64
2023/09/11 04:30:19;;;;;;;7.10;6.18;;;24.00;74.80;;;;;;5093773;28;20044;-63
2023/09/11 04:32:44;;;;;;;6.85;6.00;;;24.10;74.90;;;;;;5094342;28;20418;-64
2023/09/11 04:35:10;;;;;;;8.45;5.68;;;24.00;74.80;;;;;;5094153;28;20433;-64
2023/09/11 04:37:38;;;;;;;6.55;5.38;;;24.00;74.80;;;;;;5093205;28;20574;-64
2023/09/11 04:40:07;;;;;;;7.68;5.82;;;24.00;74.80;;;;;;5094524;28;20166;-64
2023/09/11 04:42:35;;;;;;;6.90;5.72;;;24.00;74.80;;;;;;5093134;28;20476;-64
2023/09/11 04:45:00;;;;;;;7.82;5.82;;;24.00;74.80;;;;;;5093185;28;20056;-64
2023/09/11 04:47:30;;;;;;;7.05;5.72;;;24.00;74.80;;;;;;5093149;28;20175;-64
2023/09/11 04:49:56;;;;;;;6.88;5.70;;;24.00;74.80;;;;;;5094184;28;20051;-64
2023/09/11 04:52:21;;;;;;;6.22;5.50;;;24.00;74.80;;;;;;5093490;28;20399;-64
2023/09/11 04:54:47;;;;;;;7.18;6.05;;;24.00;74.80;;;;;;5093744;28;20043;-64
2023/09/11 04:57:12;;;;;;;7.15;6.00;;;24.00;74.80;;;;;;5094210;28;20044;-64
2023/09/11 04:59:38;;;;;;;7.70;5.85;;;24.00;74.80;;;;;;5108710;28;20074;-63
2023/09/11 05:02:04;;;;;;;11.18;7.05;;;24.00;74.80;;;;;;5093560;28;20036;-68
2023/09/11 05:04:29;;;;;;;21.52;11.48;;;24.00;74.80;;;;;;5092906;28;20039;-67
2023/09/11 05:06:55;;;;;;;25.35;13.73;;;24.00;73.90;;;;;;5092212;28;20047;-67
2023/09/11 05:09:20;;;;;;;24.23;14.15;;;23.90;72.90;;;;;;5092901;28;20131;-66
2023/09/11 05:11:46;;;;;;;23.33;13.65;;;23.80;72.20;;;;;;5092570;28;20051;-67
2023/09/11 05:14:11;;;;;;;22.23;13.63;;;23.70;71.80;;;;;;5093190;28;20071;-67
2023/09/11 05:16:37;;;;;;;18.50;12.63;;;23.70;71.60;;;;;;5093520;28;20051;-66
2023/09/11 05:19:03;;;;;;;28.55;13.77;;;23.60;71.40;;;;;;5092923;28;20434;-67
2023/09/11 05:21:29;;;;;;;21.85;13.30;;;23.60;71.30;;;;;;5093529;28;20486;-66
2023/09/11 05:23:54;;;;;;;20.88;13.77;;;23.50;71.30;;;;;;5093279;28;20043;-67
2023/09/11 05:26:20;;;;;;;24.33;14.10;;;23.50;71.30;;;;;;5091548;28;20078;-66
2023/09/11 05:28:46;;;;;;;27.80;13.57;;;23.50;71.30;;;;;;5092024;28;20040;-66
2023/09/11 05:31:12;;;;;;;22.88;12.95;;;23.40;71.30;;;;;;5094629;28;20040;-66
2023/09/11 05:33:37;;;;;;;22.05;13.70;;;23.40;71.40;;;;;;5101805;28;20039;-66
2023/09/11 05:36:03;;;;;;;23.17;13.32;;;23.40;71.40;;;;;;5112009;28;20039;-66
2023/09/11 05:38:29;;;;;;;28.40;13.88;;;23.30;71.40;;;;;;5095368;28;20083;-67
2023/09/11 05:40:54;;;;;;;24.90;13.95;;;23.30;71.50;;;;;;5111492;28;20138;-67
2023/09/11 05:43:20;;;;;;;21.40;12.80;;;23.30;71.50;;;;;;5093623;28;20040;-66
2023/09/11 05:45:45;;;;;;;22.83;13.60;;;23.30;71.60;;;;;;5093195;28;20040;-69
2023/09/11 05:48:12;;;;;;;23.75;12.75;;;23.20;71.60;;;;;;5091573;28;20048;-67
2023/09/11 05:50:40;;;;;;;28.80;13.95;;;23.20;72.20;;;;;;5074876;28;20050;-63
2023/09/11 05:53:08;;;;;;;;;;;23.20;71.60;;;;;;5083055;28;20044;-68
2023/09/11 05:55:34;;;;;;;24.60;12.43;;;23.10;71.60;;;;;;5070525;28;20398;-66
2023/09/11 05:58:03;;;;;;;25.88;13.27;;;23.20;72.00;;;;;;5071429;28;20045;-65
2023/09/11 06:00:28;;;;;;;24.23;13.02;;;23.10;71.90;;;;;;5072966;28;20119;-66
2023/09/11 06:02:54;;;;;;;22.40;12.05;;;23.20;71.90;;;;;;5071136;28;20135;-64
2023/09/11 06:05:20;;;;;;;21.02;12.25;;;23.20;72.00;;;;;;5090092;28;20110;-64
2023/09/11 06:07:45;;;;;;;26.52;12.27;;;23.20;72.00;;;;;;5111984;28;20055;-64
2023/09/11 06:10:12;;;;;;;25.73;11.85;;;23.30;72.00;;;;;;5111483;28;20054;-64
2023/09/11 06:12:38;;;;;;;23.25;11.45;;;23.30;71.90;;;;;;5112996;28;20120;-64
2023/09/11 06:15:04;;;;;;;24.52;12.68;;;23.30;71.90;;;;;;5112512;27;20161;-64
2023/09/11 06:17:31;;;;;;;21.85;11.32;;;23.30;71.90;;;;;;5113740;28;20075;-64
2023/09/11 06:19:56;;;;;;;24.45;12.60;;;23.30;71.90;;;;;;5112978;28;20050;-64
2023/09/11 06:22:22;;;;;;;21.65;11.45;;;23.40;72.50;;;;;;5111179;28;20048;-65
2023/09/11 06:24:48;;;;;;;24.52;12.48;;;23.40;72.50;;;;;;5111495;28;20058;-63
2023/09/11 06:27:13;;;;;;;23.75;12.23;;;23.40;71.90;;;;;;5098810;28;20123;-63
2023/09/11 06:29:39;;;;;;;19.90;11.13;;;23.50;71.90;;;;;;5091683;28;20471;-63
2023/09/11 06:32:05;;;;;;;21.50;11.55;;;23.40;72.00;;;;;;5092300;28;20067;-63
2023/09/11 06:34:31;;;;;;;21.60;12.57;;;23.50;72.70;;;;;;5091629;28;20045;-63
2023/09/11 06:36:57;;;;;;;22.17;12.00;;;23.50;71.90;;;;;;5073275;28;20269;-63
2023/09/11 06:39:23;;;;;;;27.02;12.85;;;23.50;71.90;;;;;;5092422;28;20044;-64
2023/09/11 06:41:48;;;;;;;24.63;12.02;;;23.50;71.90;;;;;;5091681;28;20067;-63
2023/09/11 06:44:14;;;;;;;28.85;12.45;;;23.50;71.90;;;;;;5091303;28;20464;-63
2023/09/11 06:46:40;;;;;;;25.13;12.93;;;23.50;71.90;;;;;;5090921;28;20483;-64
2023/09/11 06:49:05;;;;;;;23.08;11.95;;;23.50;71.90;;;;;;5092540;28;20379;-64
2023/09/11 06:51:31;;;;;;;26.42;11.88;;;23.50;71.90;;;;;;5089855;28;20093;-64
2023/09/11 06:53:56;;;;;;;27.02;13.00;;;23.50;72.00;;;;;;5091197;28;20040;-63
2023/09/11 06:56:22;;;;;;;23.50;11.73;;;23.50;72.00;;;;;;5092320;28;20032;-64
2023/09/11 06:58:47;;;;;;;21.45;11.52;;;23.50;72.00;;;;;;5091005;28;20044;-64
2023/09/11 07:01:13;;;;;;;22.42;12.20;;;23.50;72.10;;;;;;5091718;28;20502;-64
2023/09/11 07:03:39;;;;;;;25.75;12.70;;;23.50;72.10;;;;;;5090855;28;20044;-65
2023/09/11 07:06:04;;;;;;;30.35;12.93;;;23.50;72.20;;;;;;5091342;28;20102;-64
2023/09/11 07:08:30;;;;;;;23.80;11.68;;;23.50;72.30;;;;;;5092351;28;20051;-63
2023/09/11 07:10:56;;;;;;;25.65;11.90;;;23.60;72.40;;;;;;5091621;28;20043;-63
2023/09/11 07:13:22;;;;;;;21.38;11.30;;;23.60;72.40;;;;;;5090767;28;20384;-64
2023/09/11 07:15:58;;;;;;;25.45;12.57;;;23.60;72.50;;;;;;5111364;28;20080;-64
2023/09/11 07:18:23;;;;;;;29.13;13.38;;;23.60;72.50;;;;;;5091235;28;20572;-64
2023/09/11 07:20:51;;;;;;;19.52;11.88;;;23.60;72.50;;;;;;5091392;28;20044;-63
2023/09/11 07:23:18;;;;;;;26.00;12.82;;;23.60;72.40;;;;;;5100964;28;20433;-64
2023/09/11 07:25:44;;;;;;;25.58;12.90;;;23.70;72.50;;;;;;5112180;28;20079;-65
2023/09/11 07:28:12;;;;;;;24.60;13.05;;;23.70;72.50;;;;;;5086692;28;20109;-64
2023/09/11 07:30:38;;;;;;;24.33;12.35;;;23.60;72.50;;;;;;5113824;28;20043;-64
2023/09/11 07:33:04;;;;;;;26.50;13.57;;;23.60;72.50;;;;;;5098139;28;20036;-64
2023/09/11 07:35:30;;;;;;;29.52;14.10;;;23.70;72.70;;;;;;5095582;28;20051;-64
2023/09/11 07:37:56;;;;;;;24.30;13.75;;;23.60;72.70;;;;;;5094919;28;20052;-64
2023/09/11 07:40:21;;;;;;;23.30;13.35;;;23.60;72.70;;;;;;5094829;28;20449;-64
2023/09/11 07:42:47;;;;;;;27.52;14.13;;;23.70;72.80;;;;;;5105359;28;20044;-62
2023/09/11 07:45:14;;;;;;;24.90;13.90;;;23.60;72.90;;;;;;5114508;28;20101;-64
2023/09/11 07:47:39;;;;;;;22.58;13.38;;;23.60;73.00;;;;;;5103157;28;20044;-64
2023/09/11 07:50:05;;;;;;;28.92;13.38;;;23.70;73.20;;;;;;5095100;28;20043;-66
2023/09/11 07:52:31;;;;;;;21.50;13.60;;;23.70;73.30;;;;;;5092762;28;20146;-63
2023/09/11 07:54:57;;;;;;;20.88;12.13;;;23.70;73.40;;;;;;5093966;28;20072;-64
2023/09/11 07:57:23;;;;;;;23.33;12.23;;;23.70;73.50;;;;;;5102250;28;20035;-63
2023/09/11 07:59:48;;;;;;;23.55;13.38;;;23.70;73.50;;;;;;5114151;28;20047;-63
2023/09/11 08:02:15;;;;;;;20.17;13.02;;;23.70;73.60;;;;;;5112746;28;20039;-63
2023/09/11 08:04:41;;;;;;;27.63;14.15;;;23.70;73.60;;;;;;5115347;28;20044;-63
2023/09/11 08:07:06;;;;;;;23.48;13.98;;;23.70;73.60;;;;;;5115510;28;20092;-63
2023/09/11 08:09:32;;;;;;;27.15;14.23;;;23.80;73.70;;;;;;5114674;28;20040;-63
2023/09/11 08:11:57;;;;;;;21.42;13.27;;;23.80;73.80;;;;;;5115253;28;20081;-63
2023/09/11 08:14:23;;;;;;;25.15;13.65;;;23.80;73.90;;;;;;5114560;28;20122;-63
2023/09/11 08:16:49;;;;;;;23.30;14.02;;;23.80;73.80;;;;;;5115454;28;20039;-64
2023/09/11 08:19:14;;;;;;;26.33;13.50;;;23.80;74.00;;;;;;5115541;28;20035;-63
2023/09/11 08:21:40;;;;;;;21.25;13.10;;;23.80;74.00;;;;;;5113317;28;20915;-63
2023/09/11 08:24:06;;;;;;;24.75;13.85;;;23.80;74.10;;;;;;5115234;28;20061;-63
2023/09/11 08:26:31;;;;;;;25.00;15.23;;;23.90;74.30;;;;;;5112925;28;20070;-63
2023/09/11 08:28:57;;;;;;;25.20;14.88;;;23.90;74.30;;;;;;5093941;28;20036;-63
2023/09/11 08:31:23;;;;;;;25.05;12.30;;;23.90;74.40;;;;;;5094508;28;20040;-64
2023/09/11 08:33:50;;;;;;;21.90;13.05;;;23.90;74.40;;;;;;5092913;28;20480;-65
2023/09/11 08:36:16;;;;;;;23.50;13.13;;;23.90;74.50;;;;;;5093009;28;20044;-64
2023/09/11 08:38:44;;;;;;;20.17;12.65;;;23.90;74.60;;;;;;5092774;28;20109;-64
2023/09/11 08:41:10;;;;;;;22.80;13.82;;;24.00;74.70;;;;;;5095312;28;20040;-64
2023/09/11 08:43:36;;;;;;;21.15;13.50;;;24.00;74.90;;;;;;5109605;28;20042;-63
2023/09/11 08:46:03;;;;;;;23.40;12.40;;;24.00;74.90;;;;;;5096464;28;20043;-63
2023/09/11 08:48:29;;;;;;;17.50;12.32;;;24.00;75.00;;;;;;5095766;28;20551;-66
2023/09/11 08:50:58;;;;;;;23.48;12.82;;;24.00;75.10;;;;;;5082388;28;20059;-66
2023/09/11 08:53:23;;;;;;;22.02;11.88;;;24.00;75.20;;;;;;5089528;28;20040;-66
2023/09/11 08:55:49;;;;;;;23.42;12.50;;;24.10;75.30;;;;;;5091889;28;20040;-66
2023/09/11 08:58:17;;;;;;;22.50;12.90;;;24.10;75.20;;;;;;5092604;28;20064;-66
2023/09/11 09:00:43;;;;;;;23.60;12.38;;;24.10;75.30;;;;;;5092539;28;20048;-66
2023/09/11 09:03:08;;;;;;;25.20;12.27;;;24.10;75.30;;;;;;5092630;28;20039;-66
2023/09/11 09:05:34;;;;;;;22.27;11.75;;;24.10;75.40;;;;;;5091726;28;20048;-67
2023/09/11 09:08:02;;;;;;;21.83;12.85;;;24.10;75.40;;;;;;5092972;28;20044;-66
2023/09/11 09:10:28;;;;;;;18.80;11.15;;;24.10;75.40;;;;;;5092730;28;20434;-65
2023/09/11 09:12:54;;;;;;;19.85;11.48;;;24.10;75.30;;;;;;5093176;28;20058;-66
2023/09/11 09:15:20;;;;;;;19.23;11.65;;;24.20;75.40;;;;;;5092312;28;20067;-65
2023/09/11 09:17:46;;;;;;;20.33;11.23;;;24.20;75.40;;;;;;5072359;28;20072;-67
2023/09/11 09:20:12;;;;;;;18.85;11.32;;;24.20;75.40;;;;;;5092406;28;20098;-66
2023/09/11 09:22:54;;;;;;;19.85;11.27;;;24.20;75.50;;;;;;5063186;28;20055;-66
2023/09/11 09:25:20;;;;;;;19.10;11.60;;;24.20;75.70;;;;;;5072969;28;20494;-64
2023/09/11 09:27:46;;;;;;;21.75;11.95;;;24.20;75.80;;;;;;5098835;28;20612;-64
2023/09/11 09:30:21;;;;;;;19.83;11.05;;;24.30;76.00;;;;;;5098427;28;20097;-65
2023/09/11 09:32:48;;;;;;;21.17;11.57;;;24.30;76.10;;;;;;5090692;28;20040;-66
2023/09/11 09:35:15;;;;;;;23.73;11.77;;;24.30;76.10;;;;;;5092965;28;20455;-66
2023/09/11 09:37:47;;;;;;;21.50;12.35;;;24.30;76.10;;;;;;5092673;28;20056;-67
2023/09/11 09:40:13;;;;;;;21.45;12.13;;;24.20;76.00;;;;;;5075424;28;20047;-67
2023/09/11 09:42:40;;;;;;;21.08;11.05;;;24.30;76.10;;;;;;5091220;28;20113;-66
2023/09/11 09:45:06;;;;;;;17.23;10.77;;;24.30;76.10;;;;;;5104617;28;20048;-67
2023/09/11 09:47:31;;;;;;;23.17;11.38;;;24.30;76.00;;;;;;5111524;28;20119;-66
2023/09/11 09:49:57;;;;;;;20.25;10.98;;;24.30;75.90;;;;;;5095477;28;20050;-67
2023/09/11 09:52:29;;;;;;;19.52;11.18;;;24.30;75.80;;;;;;5087224;28;20040;-64
2023/09/11 09:55:01;;;;;;;18.27;10.45;;;24.30;75.70;;;;;;5082263;28;20040;-65
2023/09/11 09:57:27;;;;;;;18.90;10.77;;;24.40;75.70;;;;;;5091532;28;20526;-65
2023/09/11 09:59:59;;;;;;;19.10;10.70;;;24.40;75.70;;;;;;5092692;28;20032;-66
2023/09/11 10:02:32;;;;;;;21.13;10.98;;;24.40;75.70;;;;;;5095671;28;20051;-66
2023/09/11 10:05:08;;;;;;;20.55;10.77;;;24.40;75.60;;;;;;5082483;28;20032;-66
2023/09/11 10:07:45;;;;;;;20.08;10.25;;;24.40;75.60;;;;;;5078310;28;20044;-65
2023/09/11 10:10:27;;;;;;;17.45;10.50;;;24.40;75.70;;;;;;5072678;28;20037;-65
2023/09/11 10:13:13;;;;;;;16.83;9.82;;;24.40;75.50;;;;;;5072172;28;20547;-65
2023/09/11 10:15:40;;;;;;;16.02;10.50;;;24.40;75.50;;;;;;5071473;28;20048;-65
2023/09/11 10:18:07;;;;;;;19.33;10.60;;;24.40;75.50;;;;;;5071918;28;20129;-65
2023/09/11 10:20:32;;;;;;;18.23;10.57;;;24.40;75.50;;;;;;5072636;28;20127;-66
2023/09/11 10:22:59;;;;;;;19.10;10.15;;;24.40;75.50;;;;;;5071151;28;20127;-66
2023/09/11 10:25:27;;;;;;;16.55;10.00;;;24.40;75.50;;;;;;5072165;28;20044;-65
2023/09/11 10:28:10;;;;;;;18.23;10.18;;;24.40;75.40;;;;;;5072476;28;20041;-65
2023/09/11 10:30:52;;;;;;;19.00;9.88;;;24.40;75.50;;;;;;5070186;28;20123;-65
2023/09/11 10:33:24;;;;;;;18.08;9.77;;;24.40;75.40;;;;;;5072394;28;20098;-65
2023/09/11 10:35:54;;;;;;;14.18;9.70;;;24.40;75.40;;;;;;5071361;28;20055;-65
2023/09/11 10:38:19;;;;;;;17.38;10.30;;;24.50;75.50;;;;;;5054295;28;20512;-65
2023/09/11 10:40:45;;;;;;;13.73;9.95;;;24.50;75.40;;;;;;5070706;28;20061;-65
2023/09/11 10:43:11;;;;;;;16.95;10.23;;;24.50;75.40;;;;;;5069847;28;20365;-65
2023/09/11 10:45:37;;;;;;;16.95;9.43;;;24.50;75.30;;;;;;5070688;28;20040;-66
2023/09/11 10:48:05;;;;;;;15.27;9.70;;;24.40;75.30;;;;;;5072098;28;20047;-66
2023/09/11 10:50:37;;;;;;;17.27;10.18;;;24.40;75.30;;;;;;5071202;28;20147;-65
2023/09/11 10:53:07;;;;;;;15.52;9.95;;;24.40;75.30;;;;;;5055094;28;20127;-66
2023/09/11 10:55:33;;;;;;;15.90;10.07;;;24.40;75.30;;;;;;5055549;28;20040;-66
2023/09/11 10:58:02;;;;;;;16.10;9.27;;;24.40;75.30;;;;;;5070089;28;20040;-66
2023/09/11 11:00:28;;;;;;;17.05;9.90;;;24.40;75.20;;;;;;5075553;28;20037;-66
2023/09/11 11:02:56;;;;;;;15.68;9.98;;;24.40;75.20;;;;;;5057687;28;20044;-66
2023/09/11 11:05:22;;;;;;;16.58;10.10;;;24.40;75.30;;;;;;5075033;28;20534;-66
2023/09/11 11:07:50;;;;;;;15.65;9.98;;;24.40;75.30;;;;;;5057532;28;20510;-65
2023/09/11 11:10:16;;;;;;;15.57;9.75;;;24.40;75.30;;;;;;5074593;28;20059;-65
2023/09/11 11:12:44;;;;;;;17.42;10.32;;;24.40;75.20;;;;;;5088247;28;20047;-66
2023/09/11 11:15:25;;;;;;;17.70;10.48;;;24.40;75.20;;;;;;5077986;28;20032;-66
2023/09/11 11:18:28;;;;;;;13.82;10.13;;;24.40;75.20;;;;;;5093771;28;20048;-68
2023/09/11 11:21:00;;;;;;;17.00;9.70;;;24.40;75.20;;;;;;5095584;28;20495;-67
2023/09/11 11:23:26;;;;;;;13.80;8.98;;;24.40;75.20;;;;;;5095517;28;20078;-66
2023/09/11 11:25:52;;;;;;;14.40;9.80;;;24.30;75.20;;;;;;5093741;28;20048;-67
2023/09/11 11:28:21;;;;;;;15.15;9.43;;;24.40;75.30;;;;;;5094774;28;20036;-67
2023/09/11 11:30:47;;;;;;;17.55;10.15;;;24.30;75.20;;;;;;5111666;28;20075;-67
2023/09/11 11:33:15;;;;;;;14.40;10.27;;;24.30;75.10;;;;;;5097243;28;20071;-67
2023/09/11 11:35:46;;;;;;;15.73;9.98;;;24.40;75.20;;;;;;5115065;28;20126;-67
2023/09/11 11:38:18;;;;;;;17.30;10.15;;;24.30;75.10;;;;;;5114427;28;20059;-67
2023/09/11 11:40:44;;;;;;;14.82;9.65;;;24.30;75.10;;;;;;5115772;28;20043;-67
2023/09/11 11:43:10;;;;;;;16.80;10.18;;;24.30;75.20;;;;;;5116134;28;20119;-67
2023/09/11 11:45:43;;;;;;;18.13;10.18;;;24.30;75.20;;;;;;5114582;28;20052;-67
2023/09/11 11:48:12;;;;;;;18.10;9.95;;;24.40;75.10;;;;;;5115935;28;20039;-67
2023/09/11 11:50:46;;;;;;;12.52;9.35;;;24.30;75.10;;;;;;5113946;28;20588;-67
2023/09/11 11:53:15;;;;;;;15.07;9.48;;;24.40;75.10;;;;;;5115114;28;20070;-67
2023/09/11 11:55:41;;;;;;;13.90;9.52;;;24.30;75.10;;;;;;5115427;28;20044;-68
2023/09/11 11:58:09;;;;;;;13.55;9.30;;;24.30;75.10;;;;;;5114521;28;20036;-67
2023/09/11 12:00:35;;;;;;;13.35;9.43;;;24.30;75.00;;;;;;5097564;28;20394;-67
2023/09/11 12:03:05;;;;;;;15.27;9.52;;;24.40;75.10;;;;;;5093893;28;20044;-67
2023/09/11 12:05:30;;;;;;;12.38;9.00;;;24.30;75.00;;;;;;5095936;28;20039;-67
2023/09/11 12:07:56;;;;;;;15.05;9.88;;;24.40;75.00;;;;;;5075707;28;20036;-68
2023/09/11 12:10:22;;;;;;;13.60;9.55;;;24.40;75.00;;;;;;5076575;28;20104;-67
2023/09/11 12:12:48;;;;;;;12.40;9.32;;;24.30;75.00;;;;;;5113363;28;20038;-67
2023/09/11 12:15:16;;;;;;;13.23;9.18;;;24.40;75.00;;;;;;5114530;28;20139;-67
2023/09/11 12:17:46;;;;;;;14.50;9.93;;;24.30;74.90;;;;;;5115089;28;20084;-67
2023/09/11 12:20:19;;;;;;;13.73;9.48;;;24.40;75.00;;;;;;5115249;28;20044;-67
2023/09/11 12:22:45;;;;;;;15.10;9.90;;;24.40;75.00;;;;;;5096498;28;20055;-67
2023/09/11 12:25:14;;;;;;;13.20;10.35;;;24.40;75.00;;;;;;5092899;28;20059;-67
2023/09/11 12:27:40;;;;;;;14.38;9.75;;;24.40;75.00;;;;;;5075537;28;20036;-67
2023/09/11 12:30:06;;;;;;;13.30;9.38;;;24.40;74.90;;;;;;5094625;28;20040;-67
2023/09/11 12:32:32;;;;;;;12.93;9.15;;;24.40;74.90;;;;;;5093246;28;20464;-66
2023/09/11 12:34:59;;;;;;;13.80;9.73;;;24.40;74.90;;;;;;5092229;28;20055;-67